sensor_id;sensor_type;location;lat;lon;timestamp;P1;durP1;ratioP1;P2;durP2;ratioP2
58768;SDS011;44536;47.474;19.056;2023-04-10T00:00:57;25.00;;;13.97;;
58768;SDS011;44536;47.474;19.056;2023-04-10T00:04:00;21.00;;;13.20;;
58768;SDS011;44536;47.474;19.056;2023-04-10T00:10:06;20.12;;;11.60;;
58768;SDS011;44536;47.474;19.056;2023-04-10T00:13:08;24.02;;;15.52;;
58768;SDS011;44536;47.474;19.056;2023-04-10T00:16:11;25.45;;;14.85;;
58768;SDS011;44536;47.474;19.056;2023-04-10T00:19:13;21.90;;;14.18;;
58768;SDS011;44536;47.474;19.056;2023-04-10T00:22:16;24.00;;;14.52;;
58768;SDS011;44536;47.474;19.056;2023-04-10T00:25:19;25.00;;;12.93;;
58768;SDS011;44536;47.474;19.056;2023-04-10T00:28:24;24.85;;;15.07;;
58768;SDS011;44536;47.474;19.056;2023-04-10T00:31:26;22.67;;;13.35;;
58768;SDS011;44536;47.474;19.056;2023-04-10T00:34:29;22.42;;;14.65;;
58768;SDS011;44536;47.474;19.056;2023-04-10T00:37:31;21.05;;;11.43;;
58768;SDS011;44536;47.474;19.056;2023-04-10T00:40:33;22.75;;;14.27;;
58768;SDS011;44536;47.474;19.056;2023-04-10T00:43:36;27.70;;;15.55;;
58768;SDS011;44536;47.474;19.056;2023-04-10T00:46:38;22.83;;;13.18;;
58768;SDS011;44536;47.474;19.056;2023-04-10T00:49:41;22.80;;;13.25;;
58768;SDS011;44536;47.474;19.056;2023-04-10T00:52:45;26.87;;;13.98;;
58768;SDS011;44536;47.474;19.056;2023-04-10T00:55:48;23.17;;;12.70;;
58768;SDS011;44536;47.474;19.056;2023-04-10T01:01:53;21.62;;;11.93;;
58768;SDS011;44536;47.474;19.056;2023-04-10T01:04:56;22.62;;;14.07;;
58768;SDS011;44536;47.474;19.056;2023-04-10T01:18:14;19.15;;;11.85;;
58768;SDS011;44536;47.474;19.056;2023-04-10T01:21:23;23.35;;;13.18;;
58768;SDS011;44536;47.474;19.056;2023-04-10T01:24:42;24.85;;;13.65;;
58768;SDS011;44536;47.474;19.056;2023-04-10T01:28:35;22.90;;;13.20;;
58768;SDS011;44536;47.474;19.056;2023-04-10T01:31:49;22.13;;;12.85;;
58768;SDS011;44536;47.474;19.056;2023-04-10T01:34:58;22.23;;;12.57;;
58768;SDS011;44536;47.474;19.056;2023-04-10T01:38:04;22.05;;;12.02;;
58768;SDS011;44536;47.474;19.056;2023-04-10T01:41:08;22.23;;;13.15;;
58768;SDS011;44536;47.474;19.056;2023-04-10T01:44:11;22.83;;;14.75;;
58768;SDS011;44536;47.474;19.056;2023-04-10T01:47:16;27.10;;;14.93;;
58768;SDS011;44536;47.474;19.056;2023-04-10T01:50:20;20.52;;;12.10;;
58768;SDS011;44536;47.474;19.056;2023-04-10T01:53:25;20.90;;;13.80;;
58768;SDS011;44536;47.474;19.056;2023-04-10T01:56:30;24.45;;;13.07;;
58768;SDS011;44536;47.474;19.056;2023-04-10T01:59:34;22.10;;;12.70;;
58768;SDS011;44536;47.474;19.056;2023-04-10T02:02:36;25.25;;;13.23;;
58768;SDS011;44536;47.474;19.056;2023-04-10T02:09:26;22.67;;;11.70;;
58768;SDS011;44536;47.474;19.056;2023-04-10T02:12:51;25.08;;;13.95;;
58768;SDS011;44536;47.474;19.056;2023-04-10T02:15:57;21.42;;;12.85;;
58768;SDS011;44536;47.474;19.056;2023-04-10T02:19:05;25.40;;;13.65;;
58768;SDS011;44536;47.474;19.056;2023-04-10T02:22:08;22.90;;;13.93;;
58768;SDS011;44536;47.474;19.056;2023-04-10T02:25:10;24.33;;;13.13;;
58768;SDS011;44536;47.474;19.056;2023-04-10T02:28:13;20.10;;;11.90;;
58768;SDS011;44536;47.474;19.056;2023-04-10T02:31:15;23.70;;;13.88;;
58768;SDS011;44536;47.474;19.056;2023-04-10T02:34:18;21.17;;;14.17;;
58768;SDS011;44536;47.474;19.056;2023-04-10T02:37:20;23.10;;;14.20;;
58768;SDS011;44536;47.474;19.056;2023-04-10T02:40:24;19.50;;;12.00;;
58768;SDS011;44536;47.474;19.056;2023-04-10T02:46:30;21.45;;;12.35;;
58768;SDS011;44536;47.474;19.056;2023-04-10T02:49:33;20.55;;;12.63;;
58768;SDS011;44536;47.474;19.056;2023-04-10T02:52:40;24.52;;;13.77;;
58768;SDS011;44536;47.474;19.056;2023-04-10T02:55:43;21.75;;;14.23;;
58768;SDS011;44536;47.474;19.056;2023-04-10T02:58:45;23.38;;;12.43;;
58768;SDS011;44536;47.474;19.056;2023-04-10T03:01:49;23.60;;;13.48;;
58768;SDS011;44536;47.474;19.056;2023-04-10T03:04:53;20.65;;;11.65;;
58768;SDS011;44536;47.474;19.056;2023-04-10T03:07:57;24.15;;;13.70;;
58768;SDS011;44536;47.474;19.056;2023-04-10T03:10:59;24.63;;;14.20;;
58768;SDS011;44536;47.474;19.056;2023-04-10T03:14:03;23.23;;;13.82;;
58768;SDS011;44536;47.474;19.056;2023-04-10T03:17:05;24.35;;;12.98;;
58768;SDS011;44536;47.474;19.056;2023-04-10T03:20:08;22.63;;;12.83;;
58768;SDS011;44536;47.474;19.056;2023-04-10T03:23:12;25.75;;;13.80;;
58768;SDS011;44536;47.474;19.056;2023-04-10T03:26:15;26.73;;;14.10;;
58768;SDS011;44536;47.474;19.056;2023-04-10T03:29:17;17.15;;;11.25;;
58768;SDS011;44536;47.474;19.056;2023-04-10T03:32:20;23.35;;;13.90;;
58768;SDS011;44536;47.474;19.056;2023-04-10T03:35:22;21.52;;;10.73;;
58768;SDS011;44536;47.474;19.056;2023-04-10T03:38:24;23.48;;;11.60;;
58768;SDS011;44536;47.474;19.056;2023-04-10T03:41:27;20.73;;;13.30;;
58768;SDS011;44536;47.474;19.056;2023-04-10T03:44:29;20.20;;;12.40;;
58768;SDS011;44536;47.474;19.056;2023-04-10T03:47:32;20.48;;;11.82;;
58768;SDS011;44536;47.474;19.056;2023-04-10T03:50:36;21.87;;;13.00;;
58768;SDS011;44536;47.474;19.056;2023-04-10T03:53:38;24.83;;;13.40;;
58768;SDS011;44536;47.474;19.056;2023-04-10T03:56:41;24.73;;;15.40;;
58768;SDS011;44536;47.474;19.056;2023-04-10T03:59:44;19.90;;;11.32;;
58768;SDS011;44536;47.474;19.056;2023-04-10T04:02:47;23.17;;;13.40;;
58768;SDS011;44536;47.474;19.056;2023-04-10T04:05:54;22.55;;;13.23;;
58768;SDS011;44536;47.474;19.056;2023-04-10T04:08:56;25.37;;;13.77;;
58768;SDS011;44536;47.474;19.056;2023-04-10T04:11:59;22.42;;;13.48;;
58768;SDS011;44536;47.474;19.056;2023-04-10T04:15:01;22.48;;;13.35;;
58768;SDS011;44536;47.474;19.056;2023-04-10T04:18:07;24.05;;;15.10;;
58768;SDS011;44536;47.474;19.056;2023-04-10T04:21:10;20.08;;;12.35;;
58768;SDS011;44536;47.474;19.056;2023-04-10T04:24:14;25.65;;;14.52;;
58768;SDS011;44536;47.474;19.056;2023-04-10T04:27:19;25.60;;;13.85;;
58768;SDS011;44536;47.474;19.056;2023-04-10T04:30:23;28.70;;;15.88;;
58768;SDS011;44536;47.474;19.056;2023-04-10T04:33:26;24.95;;;15.15;;
58768;SDS011;44536;47.474;19.056;2023-04-10T04:36:29;23.83;;;12.52;;
58768;SDS011;44536;47.474;19.056;2023-04-10T04:39:32;20.08;;;12.48;;
58768;SDS011;44536;47.474;19.056;2023-04-10T04:42:35;27.17;;;15.13;;
58768;SDS011;44536;47.474;19.056;2023-04-10T04:45:39;23.67;;;16.23;;
58768;SDS011;44536;47.474;19.056;2023-04-10T04:48:44;27.73;;;17.70;;
58768;SDS011;44536;47.474;19.056;2023-04-10T04:51:46;27.50;;;14.25;;
58768;SDS011;44536;47.474;19.056;2023-04-10T04:54:51;25.20;;;14.52;;
58768;SDS011;44536;47.474;19.056;2023-04-10T04:57:54;21.67;;;13.53;;
58768;SDS011;44536;47.474;19.056;2023-04-10T05:00:56;26.58;;;15.35;;
58768;SDS011;44536;47.474;19.056;2023-04-10T05:03:59;25.88;;;15.10;;
58768;SDS011;44536;47.474;19.056;2023-04-10T05:07:04;26.15;;;14.48;;
58768;SDS011;44536;47.474;19.056;2023-04-10T05:10:07;24.67;;;14.83;;
58768;SDS011;44536;47.474;19.056;2023-04-10T05:13:11;24.70;;;14.50;;
58768;SDS011;44536;47.474;19.056;2023-04-10T05:16:14;28.92;;;17.40;;
58768;SDS011;44536;47.474;19.056;2023-04-10T05:19:19;30.00;;;15.85;;
58768;SDS011;44536;47.474;19.056;2023-04-10T05:22:22;24.83;;;14.13;;
58768;SDS011;44536;47.474;19.056;2023-04-10T05:25:25;23.80;;;13.77;;
58768;SDS011;44536;47.474;19.056;2023-04-10T05:28:30;23.27;;;14.10;;
58768;SDS011;44536;47.474;19.056;2023-04-10T05:31:32;24.95;;;14.30;;
58768;SDS011;44536;47.474;19.056;2023-04-10T05:34:35;21.50;;;13.03;;
58768;SDS011;44536;47.474;19.056;2023-04-10T05:37:40;23.33;;;13.27;;
58768;SDS011;44536;47.474;19.056;2023-04-10T05:40:45;21.65;;;13.73;;
58768;SDS011;44536;47.474;19.056;2023-04-10T05:43:51;21.23;;;12.13;;
58768;SDS011;44536;47.474;19.056;2023-04-10T05:46:54;24.03;;;14.87;;
58768;SDS011;44536;47.474;19.056;2023-04-10T05:49:56;21.17;;;13.93;;
58768;SDS011;44536;47.474;19.056;2023-04-10T05:52:59;18.52;;;12.52;;
58768;SDS011;44536;47.474;19.056;2023-04-10T05:56:01;21.95;;;14.75;;
58768;SDS011;44536;47.474;19.056;2023-04-10T05:59:07;25.08;;;15.23;;
58768;SDS011;44536;47.474;19.056;2023-04-10T06:02:11;21.62;;;12.52;;
58768;SDS011;44536;47.474;19.056;2023-04-10T06:05:15;20.60;;;13.73;;
58768;SDS011;44536;47.474;19.056;2023-04-10T06:08:18;17.02;;;11.95;;
58768;SDS011;44536;47.474;19.056;2023-04-10T06:11:21;20.43;;;13.57;;
58768;SDS011;44536;47.474;19.056;2023-04-10T06:14:23;19.58;;;14.77;;
58768;SDS011;44536;47.474;19.056;2023-04-10T06:17:26;21.25;;;14.95;;
58768;SDS011;44536;47.474;19.056;2023-04-10T06:20:29;17.52;;;12.73;;
58768;SDS011;44536;47.474;19.056;2023-04-10T06:23:31;20.52;;;14.00;;
58768;SDS011;44536;47.474;19.056;2023-04-10T06:26:34;21.27;;;14.25;;
58768;SDS011;44536;47.474;19.056;2023-04-10T06:29:37;19.08;;;14.65;;
58768;SDS011;44536;47.474;19.056;2023-04-10T06:32:39;20.55;;;13.95;;
58768;SDS011;44536;47.474;19.056;2023-04-10T06:35:43;19.90;;;13.60;;
58768;SDS011;44536;47.474;19.056;2023-04-10T06:38:45;19.08;;;13.40;;
58768;SDS011;44536;47.474;19.056;2023-04-10T06:41:48;19.57;;;14.70;;
58768;SDS011;44536;47.474;19.056;2023-04-10T06:44:52;17.65;;;12.98;;
58768;SDS011;44536;47.474;19.056;2023-04-10T06:47:54;21.13;;;14.53;;
58768;SDS011;44536;47.474;19.056;2023-04-10T06:50:57;21.98;;;15.50;;
58768;SDS011;44536;47.474;19.056;2023-04-10T06:54:01;18.92;;;14.30;;
58768;SDS011;44536;47.474;19.056;2023-04-10T06:57:04;18.65;;;14.70;;
58768;SDS011;44536;47.474;19.056;2023-04-10T07:00:07;19.00;;;13.95;;
58768;SDS011;44536;47.474;19.056;2023-04-10T07:03:10;18.52;;;12.98;;
58768;SDS011;44536;47.474;19.056;2023-04-10T07:06:13;17.05;;;13.40;;
58768;SDS011;44536;47.474;19.056;2023-04-10T07:09:15;17.27;;;12.83;;
58768;SDS011;44536;47.474;19.056;2023-04-10T07:12:17;16.75;;;11.95;;
58768;SDS011;44536;47.474;19.056;2023-04-10T07:15:19;14.77;;;11.57;;
58768;SDS011;44536;47.474;19.056;2023-04-10T07:18:22;19.15;;;12.60;;
58768;SDS011;44536;47.474;19.056;2023-04-10T07:21:24;15.48;;;12.23;;
58768;SDS011;44536;47.474;19.056;2023-04-10T07:24:28;14.60;;;11.27;;
58768;SDS011;44536;47.474;19.056;2023-04-10T07:27:32;15.40;;;10.35;;
58768;SDS011;44536;47.474;19.056;2023-04-10T07:30:36;14.68;;;9.90;;
58768;SDS011;44536;47.474;19.056;2023-04-10T07:33:38;13.05;;;9.25;;
58768;SDS011;44536;47.474;19.056;2023-04-10T07:36:42;14.38;;;10.18;;
58768;SDS011;44536;47.474;19.056;2023-04-10T07:39:46;16.08;;;9.27;;
58768;SDS011;44536;47.474;19.056;2023-04-10T07:42:49;14.85;;;10.38;;
58768;SDS011;44536;47.474;19.056;2023-04-10T07:45:54;13.93;;;9.75;;
58768;SDS011;44536;47.474;19.056;2023-04-10T07:48:57;15.23;;;10.02;;
58768;SDS011;44536;47.474;19.056;2023-04-10T07:51:59;17.05;;;10.52;;
58768;SDS011;44536;47.474;19.056;2023-04-10T07:55:02;14.82;;;10.13;;
58768;SDS011;44536;47.474;19.056;2023-04-10T07:58:05;15.98;;;9.88;;
58768;SDS011;44536;47.474;19.056;2023-04-10T08:01:07;16.15;;;10.13;;
58768;SDS011;44536;47.474;19.056;2023-04-10T08:04:10;15.13;;;10.50;;
58768;SDS011;44536;47.474;19.056;2023-04-10T08:07:13;17.00;;;9.50;;
58768;SDS011;44536;47.474;19.056;2023-04-10T08:10:15;19.90;;;11.75;;
58768;SDS011;44536;47.474;19.056;2023-04-10T08:13:17;17.12;;;10.70;;
58768;SDS011;44536;47.474;19.056;2023-04-10T08:16:23;13.43;;;9.20;;
58768;SDS011;44536;47.474;19.056;2023-04-10T08:19:27;14.27;;;8.32;;
58768;SDS011;44536;47.474;19.056;2023-04-10T08:22:29;15.32;;;9.27;;
58768;SDS011;44536;47.474;19.056;2023-04-10T08:25:31;14.27;;;9.02;;
58768;SDS011;44536;47.474;19.056;2023-04-10T08:28:34;15.65;;;8.73;;
58768;SDS011;44536;47.474;19.056;2023-04-10T08:31:37;13.88;;;8.93;;
58768;SDS011;44536;47.474;19.056;2023-04-10T08:34:41;16.45;;;9.10;;
58768;SDS011;44536;47.474;19.056;2023-04-10T08:40:54;12.40;;;8.10;;
58768;SDS011;44536;47.474;19.056;2023-04-10T08:43:56;12.98;;;7.50;;
58768;SDS011;44536;47.474;19.056;2023-04-10T08:46:59;12.90;;;8.20;;
58768;SDS011;44536;47.474;19.056;2023-04-10T08:50:05;14.45;;;8.52;;
58768;SDS011;44536;47.474;19.056;2023-04-10T08:53:10;12.52;;;8.00;;
58768;SDS011;44536;47.474;19.056;2023-04-10T08:56:14;11.07;;;6.37;;
58768;SDS011;44536;47.474;19.056;2023-04-10T08:59:19;13.02;;;8.50;;
58768;SDS011;44536;47.474;19.056;2023-04-10T09:02:22;12.07;;;6.50;;
58768;SDS011;44536;47.474;19.056;2023-04-10T09:05:26;12.23;;;7.75;;
58768;SDS011;44536;47.474;19.056;2023-04-10T09:08:29;11.52;;;6.57;;
58768;SDS011;44536;47.474;19.056;2023-04-10T09:14:52;13.00;;;7.22;;
58768;SDS011;44536;47.474;19.056;2023-04-10T09:18:01;13.52;;;7.80;;
58768;SDS011;44536;47.474;19.056;2023-04-10T09:21:11;12.32;;;6.93;;
58768;SDS011;44536;47.474;19.056;2023-04-10T09:24:14;11.65;;;6.87;;
58768;SDS011;44536;47.474;19.056;2023-04-10T09:27:27;13.88;;;8.73;;
58768;SDS011;44536;47.474;19.056;2023-04-10T09:30:41;13.55;;;7.37;;
58768;SDS011;44536;47.474;19.056;2023-04-10T09:33:44;12.15;;;7.65;;
58768;SDS011;44536;47.474;19.056;2023-04-10T09:36:54;13.40;;;8.10;;
58768;SDS011;44536;47.474;19.056;2023-04-10T09:39:58;12.77;;;7.25;;
58768;SDS011;44536;47.474;19.056;2023-04-10T09:43:02;13.07;;;7.78;;
58768;SDS011;44536;47.474;19.056;2023-04-10T09:46:26;12.43;;;7.28;;
58768;SDS011;44536;47.474;19.056;2023-04-10T09:49:35;11.60;;;6.53;;
58768;SDS011;44536;47.474;19.056;2023-04-10T09:52:56;12.00;;;6.93;;
58768;SDS011;44536;47.474;19.056;2023-04-10T09:55:59;10.75;;;6.57;;
58768;SDS011;44536;47.474;19.056;2023-04-10T09:59:01;13.07;;;6.72;;
58768;SDS011;44536;47.474;19.056;2023-04-10T10:02:06;12.82;;;7.62;;
58768;SDS011;44536;47.474;19.056;2023-04-10T10:05:09;10.55;;;6.97;;
58768;SDS011;44536;47.474;19.056;2023-04-10T10:08:13;10.75;;;6.60;;
58768;SDS011;44536;47.474;19.056;2023-04-10T10:11:22;12.20;;;7.00;;
58768;SDS011;44536;47.474;19.056;2023-04-10T10:14:26;10.70;;;6.90;;
58768;SDS011;44536;47.474;19.056;2023-04-10T10:17:31;10.10;;;6.45;;
58768;SDS011;44536;47.474;19.056;2023-04-10T10:20:46;11.43;;;7.78;;
58768;SDS011;44536;47.474;19.056;2023-04-10T10:23:51;11.68;;;6.32;;
58768;SDS011;44536;47.474;19.056;2023-04-10T10:26:55;11.65;;;6.90;;
58768;SDS011;44536;47.474;19.056;2023-04-10T10:30:00;11.88;;;7.22;;
58768;SDS011;44536;47.474;19.056;2023-04-10T10:33:21;12.05;;;7.32;;
58768;SDS011;44536;47.474;19.056;2023-04-10T10:36:26;11.23;;;7.07;;
58768;SDS011;44536;47.474;19.056;2023-04-10T10:39:33;12.80;;;7.10;;
58768;SDS011;44536;47.474;19.056;2023-04-10T10:46:23;13.18;;;6.93;;
58768;SDS011;44536;47.474;19.056;2023-04-10T10:53:05;13.00;;;8.05;;
58768;SDS011;44536;47.474;19.056;2023-04-10T10:59:52;10.98;;;6.82;;
58768;SDS011;44536;47.474;19.056;2023-04-10T11:02:44;12.43;;;7.60;;
58768;SDS011;44536;47.474;19.056;2023-04-10T11:05:47;12.87;;;7.67;;
58768;SDS011;44536;47.474;19.056;2023-04-10T11:08:57;12.48;;;7.07;;
58768;SDS011;44536;47.474;19.056;2023-04-10T11:11:59;12.57;;;7.40;;
58768;SDS011;44536;47.474;19.056;2023-04-10T11:15:02;10.77;;;7.27;;
58768;SDS011;44536;47.474;19.056;2023-04-10T11:18:07;12.00;;;7.80;;
58768;SDS011;44536;47.474;19.056;2023-04-10T11:21:17;12.43;;;8.23;;
58768;SDS011;44536;47.474;19.056;2023-04-10T11:24:25;11.68;;;7.65;;
58768;SDS011;44536;47.474;19.056;2023-04-10T11:27:44;12.32;;;7.87;;
58768;SDS011;44536;47.474;19.056;2023-04-10T11:30:49;11.50;;;6.57;;
58768;SDS011;44536;47.474;19.056;2023-04-10T11:36:54;12.18;;;8.45;;
58768;SDS011;44536;47.474;19.056;2023-04-10T11:40:04;11.33;;;6.93;;
58768;SDS011;44536;47.474;19.056;2023-04-10T11:43:13;12.43;;;7.65;;
58768;SDS011;44536;47.474;19.056;2023-04-10T11:46:16;12.57;;;7.03;;
58768;SDS011;44536;47.474;19.056;2023-04-10T11:49:19;10.18;;;6.95;;
58768;SDS011;44536;47.474;19.056;2023-04-10T11:52:23;11.20;;;7.25;;
58768;SDS011;44536;47.474;19.056;2023-04-10T11:55:36;11.43;;;7.80;;
58768;SDS011;44536;47.474;19.056;2023-04-10T11:58:39;11.77;;;7.47;;
58768;SDS011;44536;47.474;19.056;2023-04-10T12:01:41;11.02;;;7.28;;
58768;SDS011;44536;47.474;19.056;2023-04-10T12:04:44;11.98;;;7.40;;
58768;SDS011;44536;47.474;19.056;2023-04-10T12:07:47;10.32;;;6.62;;
58768;SDS011;44536;47.474;19.056;2023-04-10T12:10:51;11.85;;;6.93;;
58768;SDS011;44536;47.474;19.056;2023-04-10T12:13:54;10.32;;;6.68;;
58768;SDS011;44536;47.474;19.056;2023-04-10T12:16:58;12.77;;;7.82;;
58768;SDS011;44536;47.474;19.056;2023-04-10T12:20:01;10.68;;;6.90;;
58768;SDS011;44536;47.474;19.056;2023-04-10T12:23:05;12.90;;;7.03;;
58768;SDS011;44536;47.474;19.056;2023-04-10T12:26:09;11.40;;;6.93;;
58768;SDS011;44536;47.474;19.056;2023-04-10T12:29:11;11.52;;;6.78;;
58768;SDS011;44536;47.474;19.056;2023-04-10T12:32:14;12.25;;;7.82;;
58768;SDS011;44536;47.474;19.056;2023-04-10T12:35:17;13.50;;;7.18;;
58768;SDS011;44536;47.474;19.056;2023-04-10T12:38:38;13.15;;;7.68;;
58768;SDS011;44536;47.474;19.056;2023-04-10T12:41:43;12.07;;;6.45;;
58768;SDS011;44536;47.474;19.056;2023-04-10T12:44:52;11.15;;;6.53;;
58768;SDS011;44536;47.474;19.056;2023-04-10T12:47:59;11.43;;;7.85;;
58768;SDS011;44536;47.474;19.056;2023-04-10T12:51:02;9.70;;;6.10;;
58768;SDS011;44536;47.474;19.056;2023-04-10T12:54:05;10.85;;;6.68;;
58768;SDS011;44536;47.474;19.056;2023-04-10T12:57:07;12.35;;;7.10;;
58768;SDS011;44536;47.474;19.056;2023-04-10T13:00:11;9.98;;;5.78;;
58768;SDS011;44536;47.474;19.056;2023-04-10T13:03:17;11.70;;;6.28;;
58768;SDS011;44536;47.474;19.056;2023-04-10T13:06:20;12.57;;;6.00;;
58768;SDS011;44536;47.474;19.056;2023-04-10T13:09:22;10.25;;;6.00;;
58768;SDS011;44536;47.474;19.056;2023-04-10T13:12:25;9.37;;;5.43;;
58768;SDS011;44536;47.474;19.056;2023-04-10T13:15:28;9.10;;;5.30;;
58768;SDS011;44536;47.474;19.056;2023-04-10T13:18:30;8.98;;;5.45;;
58768;SDS011;44536;47.474;19.056;2023-04-10T13:21:32;10.55;;;5.72;;
58768;SDS011;44536;47.474;19.056;2023-04-10T13:24:35;8.85;;;5.03;;
58768;SDS011;44536;47.474;19.056;2023-04-10T13:27:37;9.07;;;5.07;;
58768;SDS011;44536;47.474;19.056;2023-04-10T13:30:40;9.52;;;5.55;;
58768;SDS011;44536;47.474;19.056;2023-04-10T13:33:44;10.85;;;5.85;;
58768;SDS011;44536;47.474;19.056;2023-04-10T13:36:49;10.55;;;5.57;;
58768;SDS011;44536;47.474;19.056;2023-04-10T13:39:51;9.80;;;5.57;;
58768;SDS011;44536;47.474;19.056;2023-04-10T13:42:54;9.65;;;5.53;;
58768;SDS011;44536;47.474;19.056;2023-04-10T13:45:56;11.60;;;5.85;;
58768;SDS011;44536;47.474;19.056;2023-04-10T13:48:59;12.37;;;5.93;;
58768;SDS011;44536;47.474;19.056;2023-04-10T13:52:01;8.57;;;4.62;;
58768;SDS011;44536;47.474;19.056;2023-04-10T13:55:04;9.07;;;5.73;;
58768;SDS011;44536;47.474;19.056;2023-04-10T13:58:07;7.60;;;4.78;;
58768;SDS011;44536;47.474;19.056;2023-04-10T14:01:09;9.40;;;5.03;;
58768;SDS011;44536;47.474;19.056;2023-04-10T14:04:13;9.35;;;4.87;;
58768;SDS011;44536;47.474;19.056;2023-04-10T14:07:16;10.10;;;6.57;;
58768;SDS011;44536;47.474;19.056;2023-04-10T14:10:20;9.45;;;5.90;;
58768;SDS011;44536;47.474;19.056;2023-04-10T14:13:22;8.73;;;4.53;;
58768;SDS011;44536;47.474;19.056;2023-04-10T14:16:24;8.95;;;5.00;;
58768;SDS011;44536;47.474;19.056;2023-04-10T14:19:27;10.68;;;5.50;;
58768;SDS011;44536;47.474;19.056;2023-04-10T14:22:29;10.60;;;6.67;;
58768;SDS011;44536;47.474;19.056;2023-04-10T14:25:32;8.73;;;5.83;;
58768;SDS011;44536;47.474;19.056;2023-04-10T14:28:35;10.57;;;5.60;;
58768;SDS011;44536;47.474;19.056;2023-04-10T14:31:37;8.77;;;5.50;;
58768;SDS011;44536;47.474;19.056;2023-04-10T14:34:58;9.52;;;5.50;;
58768;SDS011;44536;47.474;19.056;2023-04-10T14:38:00;7.82;;;5.18;;
58768;SDS011;44536;47.474;19.056;2023-04-10T14:41:03;9.35;;;5.12;;
58768;SDS011;44536;47.474;19.056;2023-04-10T14:44:06;8.70;;;5.63;;
58768;SDS011;44536;47.474;19.056;2023-04-10T14:47:08;10.52;;;5.35;;
58768;SDS011;44536;47.474;19.056;2023-04-10T14:50:11;10.02;;;4.47;;
58768;SDS011;44536;47.474;19.056;2023-04-10T14:53:14;8.88;;;5.37;;
58768;SDS011;44536;47.474;19.056;2023-04-10T14:56:16;9.18;;;4.97;;
58768;SDS011;44536;47.474;19.056;2023-04-10T14:59:19;9.10;;;5.57;;
58768;SDS011;44536;47.474;19.056;2023-04-10T15:02:21;8.98;;;4.85;;
58768;SDS011;44536;47.474;19.056;2023-04-10T15:05:24;10.55;;;5.72;;
58768;SDS011;44536;47.474;19.056;2023-04-10T15:08:28;9.80;;;5.07;;
58768;SDS011;44536;47.474;19.056;2023-04-10T15:11:30;7.97;;;4.25;;
58768;SDS011;44536;47.474;19.056;2023-04-10T15:14:33;8.95;;;5.55;;
58768;SDS011;44536;47.474;19.056;2023-04-10T15:17:35;10.27;;;4.90;;
58768;SDS011;44536;47.474;19.056;2023-04-10T15:20:38;8.65;;;4.93;;
58768;SDS011;44536;47.474;19.056;2023-04-10T15:23:40;9.43;;;5.32;;
58768;SDS011;44536;47.474;19.056;2023-04-10T15:26:43;12.15;;;6.05;;
58768;SDS011;44536;47.474;19.056;2023-04-10T15:29:47;10.10;;;6.10;;
58768;SDS011;44536;47.474;19.056;2023-04-10T15:32:49;9.70;;;5.53;;
58768;SDS011;44536;47.474;19.056;2023-04-10T15:35:52;9.53;;;5.67;;
58768;SDS011;44536;47.474;19.056;2023-04-10T15:38:54;9.77;;;5.00;;
58768;SDS011;44536;47.474;19.056;2023-04-10T15:41:57;9.10;;;5.47;;
58768;SDS011;44536;47.474;19.056;2023-04-10T15:45:01;10.63;;;5.68;;
58768;SDS011;44536;47.474;19.056;2023-04-10T15:48:04;12.32;;;5.22;;
58768;SDS011;44536;47.474;19.056;2023-04-10T15:51:07;9.85;;;5.20;;
58768;SDS011;44536;47.474;19.056;2023-04-10T15:54:09;8.80;;;4.87;;
58768;SDS011;44536;47.474;19.056;2023-04-10T15:57:11;9.30;;;5.60;;
58768;SDS011;44536;47.474;19.056;2023-04-10T16:00:14;11.27;;;6.22;;
58768;SDS011;44536;47.474;19.056;2023-04-10T16:03:17;10.33;;;6.60;;
58768;SDS011;44536;47.474;19.056;2023-04-10T16:06:19;11.77;;;5.95;;
58768;SDS011;44536;47.474;19.056;2023-04-10T16:09:22;10.30;;;5.03;;
58768;SDS011;44536;47.474;19.056;2023-04-10T16:12:27;9.88;;;5.93;;
58768;SDS011;44536;47.474;19.056;2023-04-10T16:15:32;12.15;;;6.30;;
58768;SDS011;44536;47.474;19.056;2023-04-10T16:18:35;10.07;;;6.43;;
58768;SDS011;44536;47.474;19.056;2023-04-10T16:21:37;9.55;;;5.32;;
58768;SDS011;44536;47.474;19.056;2023-04-10T16:24:39;12.82;;;4.80;;
58768;SDS011;44536;47.474;19.056;2023-04-10T16:27:42;10.53;;;5.90;;
58768;SDS011;44536;47.474;19.056;2023-04-10T16:30:45;11.85;;;6.03;;
58768;SDS011;44536;47.474;19.056;2023-04-10T16:33:47;11.48;;;6.05;;
58768;SDS011;44536;47.474;19.056;2023-04-10T16:36:49;10.20;;;5.70;;
58768;SDS011;44536;47.474;19.056;2023-04-10T16:39:52;11.18;;;6.43;;
58768;SDS011;44536;47.474;19.056;2023-04-10T16:42:54;8.65;;;5.10;;
58768;SDS011;44536;47.474;19.056;2023-04-10T16:45:57;10.32;;;6.20;;
58768;SDS011;44536;47.474;19.056;2023-04-10T16:49:00;10.77;;;6.25;;
58768;SDS011;44536;47.474;19.056;2023-04-10T16:52:03;10.73;;;6.53;;
58768;SDS011;44536;47.474;19.056;2023-04-10T16:55:05;11.02;;;6.95;;
58768;SDS011;44536;47.474;19.056;2023-04-10T16:58:08;12.32;;;6.28;;
58768;SDS011;44536;47.474;19.056;2023-04-10T17:01:11;12.75;;;6.35;;
58768;SDS011;44536;47.474;19.056;2023-04-10T17:04:15;9.35;;;5.62;;
58768;SDS011;44536;47.474;19.056;2023-04-10T17:07:19;11.63;;;7.12;;
58768;SDS011;44536;47.474;19.056;2023-04-10T17:10:22;10.27;;;5.93;;
58768;SDS011;44536;47.474;19.056;2023-04-10T17:13:24;11.63;;;6.32;;
58768;SDS011;44536;47.474;19.056;2023-04-10T17:16:27;10.18;;;6.68;;
58768;SDS011;44536;47.474;19.056;2023-04-10T17:19:29;13.15;;;6.95;;
58768;SDS011;44536;47.474;19.056;2023-04-10T17:22:32;11.70;;;6.70;;
58768;SDS011;44536;47.474;19.056;2023-04-10T17:25:37;10.20;;;6.68;;
58768;SDS011;44536;47.474;19.056;2023-04-10T17:28:41;12.10;;;6.70;;
58768;SDS011;44536;47.474;19.056;2023-04-10T17:31:47;11.48;;;6.18;;
58768;SDS011;44536;47.474;19.056;2023-04-10T17:34:50;12.82;;;7.53;;
58768;SDS011;44536;47.474;19.056;2023-04-10T17:37:52;12.70;;;8.02;;
58768;SDS011;44536;47.474;19.056;2023-04-10T17:40:55;13.20;;;7.93;;
58768;SDS011;44536;47.474;19.056;2023-04-10T17:43:57;14.52;;;9.05;;
58768;SDS011;44536;47.474;19.056;2023-04-10T17:46:59;13.18;;;7.18;;
58768;SDS011;44536;47.474;19.056;2023-04-10T17:50:02;11.73;;;7.55;;
58768;SDS011;44536;47.474;19.056;2023-04-10T17:53:05;13.43;;;8.85;;
58768;SDS011;44536;47.474;19.056;2023-04-10T17:56:15;12.98;;;7.53;;
58768;SDS011;44536;47.474;19.056;2023-04-10T17:59:19;13.30;;;8.35;;
58768;SDS011;44536;47.474;19.056;2023-04-10T18:02:21;14.13;;;7.55;;
58768;SDS011;44536;47.474;19.056;2023-04-10T18:05:24;14.18;;;8.13;;
58768;SDS011;44536;47.474;19.056;2023-04-10T18:08:26;12.43;;;6.70;;
58768;SDS011;44536;47.474;19.056;2023-04-10T18:11:29;12.88;;;7.43;;
58768;SDS011;44536;47.474;19.056;2023-04-10T18:14:33;12.52;;;7.03;;
58768;SDS011;44536;47.474;19.056;2023-04-10T18:17:38;11.35;;;6.35;;
58768;SDS011;44536;47.474;19.056;2023-04-10T18:20:40;11.50;;;6.65;;
58768;SDS011;44536;47.474;19.056;2023-04-10T18:23:42;9.68;;;6.05;;
58768;SDS011;44536;47.474;19.056;2023-04-10T18:26:45;11.45;;;7.57;;
58768;SDS011;44536;47.474;19.056;2023-04-10T18:29:50;12.40;;;7.00;;
58768;SDS011;44536;47.474;19.056;2023-04-10T18:32:52;14.13;;;6.30;;
58768;SDS011;44536;47.474;19.056;2023-04-10T18:35:54;13.80;;;7.82;;